sensor_id;sensor_type;location;lat;lon;timestamp;temperature;humidity
18934;DHT22;9599;53.706;10.384;2022-07-17T00:02:26;13.70;99.90
18934;DHT22;9599;53.706;10.384;2022-07-17T00:04:54;13.70;99.90
18934;DHT22;9599;53.706;10.384;2022-07-17T00:07:23;13.70;99.90
18934;DHT22;9599;53.706;10.384;2022-07-17T00:09:53;13.60;99.90
18934;DHT22;9599;53.706;10.384;2022-07-17T00:12:21;13.60;99.90
18934;DHT22;9599;53.706;10.384;2022-07-17T00:14:49;13.60;99.90
18934;DHT22;9599;53.706;10.384;2022-07-17T00:17:18;13.50;99.90
18934;DHT22;9599;53.706;10.384;2022-07-17T00:19:46;13.50;99.90
18934;DHT22;9599;53.706;10.384;2022-07-17T00:22:14;13.50;99.90
18934;DHT22;9599;53.706;10.384;2022-07-17T00:24:42;13.50;99.90
18934;DHT22;9599;53.706;10.384;2022-07-17T00:27:12;13.50;99.90
18934;DHT22;9599;53.706;10.384;2022-07-17T00:29:40;13.50;99.90
18934;DHT22;9599;53.706;10.384;2022-07-17T00:32:08;13.50;99.90
18934;DHT22;9599;53.706;10.384;2022-07-17T00:34:36;13.50;99.90
18934;DHT22;9599;53.706;10.384;2022-07-17T00:37:04;13.50;99.90
18934;DHT22;9599;53.706;10.384;2022-07-17T00:39:33;13.60;99.90
18934;DHT22;9599;53.706;10.384;2022-07-17T00:42:02;13.60;99.90
18934;DHT22;9599;53.706;10.384;2022-07-17T00:44:31;13.50;99.90
18934;DHT22;9599;53.706;10.384;2022-07-17T00:46:59;13.60;99.90
18934;DHT22;9599;53.706;10.384;2022-07-17T00:49:27;13.60;99.90
18934;DHT22;9599;53.706;10.384;2022-07-17T00:51:55;13.70;99.90
18934;DHT22;9599;53.706;10.384;2022-07-17T00:54:23;13.70;99.90
18934;DHT22;9599;53.706;10.384;2022-07-17T00:56:53;13.70;99.90
18934;DHT22;9599;53.706;10.384;2022-07-17T00:59:25;13.80;99.90
18934;DHT22;9599;53.706;10.384;2022-07-17T01:01:55;13.80;99.90
18934;DHT22;9599;53.706;10.384;2022-07-17T01:04:23;13.80;99.90
18934;DHT22;9599;53.706;10.384;2022-07-17T01:06:51;13.80;99.90
18934;DHT22;9599;53.706;10.384;2022-07-17T01:09:19;13.80;99.90
18934;DHT22;9599;53.706;10.384;2022-07-17T01:11:47;13.80;99.90
18934;DHT22;9599;53.706;10.384;2022-07-17T01:14:16;13.80;99.90
18934;DHT22;9599;53.706;10.384;2022-07-17T01:16:46;13.80;99.90
18934;DHT22;9599;53.706;10.384;2022-07-17T01:19:15;13.80;99.90
18934;DHT22;9599;53.706;10.384;2022-07-17T01:21:46;13.80;99.90
18934;DHT22;9599;53.706;10.384;2022-07-17T01:24:16;13.80;99.90
18934;DHT22;9599;53.706;10.384;2022-07-17T01:26:45;13.80;99.90
18934;DHT22;9599;53.706;10.384;2022-07-17T01:29:15;13.90;99.90
18934;DHT22;9599;53.706;10.384;2022-07-17T01:31:43;13.80;99.90
18934;DHT22;9599;53.706;10.384;2022-07-17T01:34:12;13.80;99.90
18934;DHT22;9599;53.706;10.384;2022-07-17T01:36:40;13.70;99.90
18934;DHT22;9599;53.706;10.384;2022-07-17T01:39:10;13.70;99.90
18934;DHT22;9599;53.706;10.384;2022-07-17T01:41:38;13.60;99.90
18934;DHT22;9599;53.706;10.384;2022-07-17T01:44:06;13.60;99.90
18934;DHT22;9599;53.706;10.384;2022-07-17T01:46:35;13.50;99.90
18934;DHT22;9599;53.706;10.384;2022-07-17T01:49:03;13.50;99.90
18934;DHT22;9599;53.706;10.384;2022-07-17T01:51:31;13.50;99.90
18934;DHT22;9599;53.706;10.384;2022-07-17T01:53:59;13.50;99.90
18934;DHT22;9599;53.706;10.384;2022-07-17T01:56:29;13.50;99.90
18934;DHT22;9599;53.706;10.384;2022-07-17T01:58:57;13.60;99.90
18934;DHT22;9599;53.706;10.384;2022-07-17T02:01:25;13.60;99.90
18934;DHT22;9599;53.706;10.384;2022-07-17T02:03:53;13.60;99.90
18934;DHT22;9599;53.706;10.384;2022-07-17T02:06:21;13.60;99.90
18934;DHT22;9599;53.706;10.384;2022-07-17T02:08:49;13.60;99.90
18934;DHT22;9599;53.706;10.384;2022-07-17T02:11:18;13.60;99.90
18934;DHT22;9599;53.706;10.384;2022-07-17T02:13:47;13.60;99.90
18934;DHT22;9599;53.706;10.384;2022-07-17T02:16:15;13.60;99.90
18934;DHT22;9599;53.706;10.384;2022-07-17T02:18:43;13.60;99.90
18934;DHT22;9599;53.706;10.384;2022-07-17T02:21:11;13.60;99.90
18934;DHT22;9599;53.706;10.384;2022-07-17T02:23:39;13.60;99.90
18934;DHT22;9599;53.706;10.384;2022-07-17T02:26:07;13.60;99.90
18934;DHT22;9599;53.706;10.384;2022-07-17T02:28:36;13.50;99.90
18934;DHT22;9599;53.706;10.384;2022-07-17T02:31:06;13.50;99.90
18934;DHT22;9599;53.706;10.384;2022-07-17T02:33:34;13.50;99.90
18934;DHT22;9599;53.706;10.384;2022-07-17T02:36:02;13.60;99.90
18934;DHT22;9599;53.706;10.384;2022-07-17T02:38:30;13.50;99.90
18934;DHT22;9599;53.706;10.384;2022-07-17T02:40:58;13.50;99.90
18934;DHT22;9599;53.706;10.384;2022-07-17T02:43:26;13.50;99.90
18934;DHT22;9599;53.706;10.384;2022-07-17T02:45:54;13.50;99.90
18934;DHT22;9599;53.706;10.384;2022-07-17T02:48:24;13.50;99.90
18934;DHT22;9599;53.706;10.384;2022-07-17T02:50:52;13.60;99.90
18934;DHT22;9599;53.706;10.384;2022-07-17T02:53:20;13.50;99.90
18934;DHT22;9599;53.706;10.384;2022-07-17T02:55:48;13.50;99.90
18934;DHT22;9599;53.706;10.384;2022-07-17T02:58:16;13.60;99.90
18934;DHT22;9599;53.706;10.384;2022-07-17T03:00:44;13.60;99.90
18934;DHT22;9599;53.706;10.384;2022-07-17T03:03:12;13.60;99.90
18934;DHT22;9599;53.706;10.384;2022-07-17T03:05:42;13.60;99.90
18934;DHT22;9599;53.706;10.384;2022-07-17T03:08:10;13.70;99.90
18934;DHT22;9599;53.706;10.384;2022-07-17T03:10:38;13.60;99.90
18934;DHT22;9599;53.706;10.384;2022-07-17T03:13:06;13.60;99.90
18934;DHT22;9599;53.706;10.384;2022-07-17T03:15:34;13.70;99.90
18934;DHT22;9599;53.706;10.384;2022-07-17T03:18:02;13.60;99.90
18934;DHT22;9599;53.706;10.384;2022-07-17T03:20:30;13.60;99.90
18934;DHT22;9599;53.706;10.384;2022-07-17T03:23:00;13.60;99.90
18934;DHT22;9599;53.706;10.384;2022-07-17T03:25:28;13.60;99.90
18934;DHT22;9599;53.706;10.384;2022-07-17T03:27:56;13.60;99.90
18934;DHT22;9599;53.706;10.384;2022-07-17T03:30:24;13.60;99.90
18934;DHT22;9599;53.706;10.384;2022-07-17T03:32:52;13.60;99.90
18934;DHT22;9599;53.706;10.384;2022-07-17T03:35:20;13.70;99.90
18934;DHT22;9599;53.706;10.384;2022-07-17T03:37:48;13.70;99.90
18934;DHT22;9599;53.706;10.384;2022-07-17T03:40:17;13.70;99.90
18934;DHT22;9599;53.706;10.384;2022-07-17T03:42:46;13.80;99.90
18934;DHT22;9599;53.706;10.384;2022-07-17T03:45:16;13.80;99.90
18934;DHT22;9599;53.706;10.384;2022-07-17T03:47:44;13.90;99.90
18934;DHT22;9599;53.706;10.384;2022-07-17T03:50:12;13.90;99.90
18934;DHT22;9599;53.706;10.384;2022-07-17T03:52:40;13.90;99.90
18934;DHT22;9599;53.706;10.384;2022-07-17T03:55:08;14.00;99.90
18934;DHT22;9599;53.706;10.384;2022-07-17T03:57:38;14.00;99.90
18934;DHT22;9599;53.706;10.384;2022-07-17T04:00:07;14.00;99.90
18934;DHT22;9599;53.706;10.384;2022-07-17T04:02:38;14.10;99.90
18934;DHT22;9599;53.706;10.384;2022-07-17T04:05:07;14.10;99.90
18934;DHT22;9599;53.706;10.384;2022-07-17T04:07:36;14.20;99.90
18934;DHT22;9599;53.706;10.384;2022-07-17T04:10:06;14.20;99.90
18934;DHT22;9599;53.706;10.384;2022-07-17T04:12:35;14.30;99.90
18934;DHT22;9599;53.706;10.384;2022-07-17T04:15:06;14.30;99.90
18934;DHT22;9599;53.706;10.384;2022-07-17T04:17:34;14.30;99.90
18934;DHT22;9599;53.706;10.384;2022-07-17T04:20:02;14.30;99.90
18934;DHT22;9599;53.706;10.384;2022-07-17T04:22:31;14.40;99.90
18934;DHT22;9599;53.706;10.384;2022-07-17T04:24:58;14.40;99.90
18934;DHT22;9599;53.706;10.384;2022-07-17T04:27:26;14.40;99.90
18934;DHT22;9599;53.706;10.384;2022-07-17T04:29:54;14.50;99.90
18934;DHT22;9599;53.706;10.384;2022-07-17T04:32:24;14.40;99.90
18934;DHT22;9599;53.706;10.384;2022-07-17T04:34:52;14.40;99.90
18934;DHT22;9599;53.706;10.384;2022-07-17T04:37:19;14.50;99.90
18934;DHT22;9599;53.706;10.384;2022-07-17T04:39:47;14.40;99.90
18934;DHT22;9599;53.706;10.384;2022-07-17T04:42:15;14.30;99.90
18934;DHT22;9599;53.706;10.384;2022-07-17T04:44:43;14.40;99.90
18934;DHT22;9599;53.706;10.384;2022-07-17T04:47:11;14.50;99.90
18934;DHT22;9599;53.706;10.384;2022-07-17T04:49:41;14.50;99.90
18934;DHT22;9599;53.706;10.384;2022-07-17T04:52:09;14.60;99.90
18934;DHT22;9599;53.706;10.384;2022-07-17T04:54:37;14.70;99.90
18934;DHT22;9599;53.706;10.384;2022-07-17T04:57:05;14.70;99.90
18934;DHT22;9599;53.706;10.384;2022-07-17T04:59:33;14.70;99.90
18934;DHT22;9599;53.706;10.384;2022-07-17T05:02:04;14.70;99.90
18934;DHT22;9599;53.706;10.384;2022-07-17T05:04:32;14.80;99.90
18934;DHT22;9599;53.706;10.384;2022-07-17T05:07:02;14.80;99.90
18934;DHT22;9599;53.706;10.384;2022-07-17T05:09:30;14.90;99.90
18934;DHT22;9599;53.706;10.384;2022-07-17T05:11:58;15.00;99.90
18934;DHT22;9599;53.706;10.384;2022-07-17T05:14:26;15.10;99.90
18934;DHT22;9599;53.706;10.384;2022-07-17T05:16:54;15.30;99.90
18934;DHT22;9599;53.706;10.384;2022-07-17T05:19:22;15.30;99.90
18934;DHT22;9599;53.706;10.384;2022-07-17T05:21:51;15.40;99.90
18934;DHT22;9599;53.706;10.384;2022-07-17T05:24:20;15.40;99.90
18934;DHT22;9599;53.706;10.384;2022-07-17T05:26:48;15.40;99.90
18934;DHT22;9599;53.706;10.384;2022-07-17T05:29:16;15.40;99.90
18934;DHT22;9599;53.706;10.384;2022-07-17T05:31:44;15.40;99.90
18934;DHT22;9599;53.706;10.384;2022-07-17T05:34:12;15.50;99.90
18934;DHT22;9599;53.706;10.384;2022-07-17T05:36:40;15.40;99.90
18934;DHT22;9599;53.706;10.384;2022-07-17T05:39:08;15.50;99.90
18934;DHT22;9599;53.706;10.384;2022-07-17T05:41:38;15.50;99.90
18934;DHT22;9599;53.706;10.384;2022-07-17T05:44:06;15.60;99.90
18934;DHT22;9599;53.706;10.384;2022-07-17T05:46:35;15.60;99.90
18934;DHT22;9599;53.706;10.384;2022-07-17T05:49:03;15.70;99.90
18934;DHT22;9599;53.706;10.384;2022-07-17T05:51:30;15.70;99.90
18934;DHT22;9599;53.706;10.384;2022-07-17T05:53:59;15.70;99.90
18934;DHT22;9599;53.706;10.384;2022-07-17T05:56:27;15.70;99.90
18934;DHT22;9599;53.706;10.384;2022-07-17T05:58:56;15.80;99.90
18934;DHT22;9599;53.706;10.384;2022-07-17T06:01:24;15.90;99.90
18934;DHT22;9599;53.706;10.384;2022-07-17T06:03:53;16.10;99.90
18934;DHT22;9599;53.706;10.384;2022-07-17T06:06:21;16.20;99.90
18934;DHT22;9599;53.706;10.384;2022-07-17T06:08:49;16.40;99.90
18934;DHT22;9599;53.706;10.384;2022-07-17T06:11:17;16.40;99.90
18934;DHT22;9599;53.706;10.384;2022-07-17T06:13:53;16.40;99.90
18934;DHT22;9599;53.706;10.384;2022-07-17T06:16:22;16.50;99.90
18934;DHT22;9599;53.706;10.384;2022-07-17T06:18:50;16.30;99.90
18934;DHT22;9599;53.706;10.384;2022-07-17T06:21:18;16.30;99.90
18934;DHT22;9599;53.706;10.384;2022-07-17T06:23:46;16.30;99.90
18934;DHT22;9599;53.706;10.384;2022-07-17T06:26:14;16.40;99.90
18934;DHT22;9599;53.706;10.384;2022-07-17T06:28:42;16.40;99.90
18934;DHT22;9599;53.706;10.384;2022-07-17T06:31:10;16.40;99.90
18934;DHT22;9599;53.706;10.384;2022-07-17T06:33:40;16.50;99.90
18934;DHT22;9599;53.706;10.384;2022-07-17T06:36:08;16.60;99.90
18934;DHT22;9599;53.706;10.384;2022-07-17T06:38:36;16.50;99.90
18934;DHT22;9599;53.706;10.384;2022-07-17T06:41:04;16.60;99.90
18934;DHT22;9599;53.706;10.384;2022-07-17T06:43:32;16.60;99.90
18934;DHT22;9599;53.706;10.384;2022-07-17T06:46:00;16.60;99.90
18934;DHT22;9599;53.706;10.384;2022-07-17T06:48:28;16.60;99.90
18934;DHT22;9599;53.706;10.384;2022-07-17T06:50:57;16.60;99.90
18934;DHT22;9599;53.706;10.384;2022-07-17T06:53:25;16.70;99.90
18934;DHT22;9599;53.706;10.384;2022-07-17T06:55:53;17.00;99.90
18934;DHT22;9599;53.706;10.384;2022-07-17T06:58:21;17.40;99.90
18934;DHT22;9599;53.706;10.384;2022-07-17T07:00:49;17.80;99.90
18934;DHT22;9599;53.706;10.384;2022-07-17T07:03:17;18.00;99.90
18934;DHT22;9599;53.706;10.384;2022-07-17T07:05:45;17.90;99.90
18934;DHT22;9599;53.706;10.384;2022-07-17T07:08:15;17.80;99.90
18934;DHT22;9599;53.706;10.384;2022-07-17T07:10:43;17.80;99.90
18934;DHT22;9599;53.706;10.384;2022-07-17T07:13:12;17.80;99.90
18934;DHT22;9599;53.706;10.384;2022-07-17T07:15:40;17.80;99.90
18934;DHT22;9599;53.706;10.384;2022-07-17T07:18:08;17.60;99.90
18934;DHT22;9599;53.706;10.384;2022-07-17T07:20:36;17.50;99.90
18934;DHT22;9599;53.706;10.384;2022-07-17T07:23:04;17.50;99.90
18934;DHT22;9599;53.706;10.384;2022-07-17T07:25:34;17.60;99.90
18934;DHT22;9599;53.706;10.384;2022-07-17T07:28:02;17.90;99.90
18934;DHT22;9599;53.706;10.384;2022-07-17T07:30:31;18.00;99.90
18934;DHT22;9599;53.706;10.384;2022-07-17T07:32:59;18.20;99.90
18934;DHT22;9599;53.706;10.384;2022-07-17T07:35:26;18.50;99.90
18934;DHT22;9599;53.706;10.384;2022-07-17T07:37:55;18.60;99.90
18934;DHT22;9599;53.706;10.384;2022-07-17T07:40:23;18.60;99.90
18934;DHT22;9599;53.706;10.384;2022-07-17T07:42:52;18.50;99.90
18934;DHT22;9599;53.706;10.384;2022-07-17T07:45:21;18.20;99.90
18934;DHT22;9599;53.706;10.384;2022-07-17T07:47:49;18.10;99.90
18934;DHT22;9599;53.706;10.384;2022-07-17T07:50:18;18.10;99.90
18934;DHT22;9599;53.706;10.384;2022-07-17T07:52:46;18.40;99.90
18934;DHT22;9599;53.706;10.384;2022-07-17T07:55:14;18.40;99.90
18934;DHT22;9599;53.706;10.384;2022-07-17T07:57:47;18.70;99.90
18934;DHT22;9599;53.706;10.384;2022-07-17T08:00:17;19.10;99.90
18934;DHT22;9599;53.706;10.384;2022-07-17T08:02:45;19.40;99.90
18934;DHT22;9599;53.706;10.384;2022-07-17T08:05:13;19.70;99.90
18934;DHT22;9599;53.706;10.384;2022-07-17T08:07:41;19.70;99.90
18934;DHT22;9599;53.706;10.384;2022-07-17T08:10:09;19.50;99.90
18934;DHT22;9599;53.706;10.384;2022-07-17T08:12:37;19.30;99.90
18934;DHT22;9599;53.706;10.384;2022-07-17T08:15:13;19.20;99.90
18934;DHT22;9599;53.706;10.384;2022-07-17T08:17:43;19.30;99.90
18934;DHT22;9599;53.706;10.384;2022-07-17T08:20:12;19.40;99.90
18934;DHT22;9599;53.706;10.384;2022-07-17T08:22:41;19.50;99.90
18934;DHT22;9599;53.706;10.384;2022-07-17T08:25:30;19.70;99.90
18934;DHT22;9599;53.706;10.384;2022-07-17T08:27:58;19.50;99.90
18934;DHT22;9599;53.706;10.384;2022-07-17T08:30:26;19.50;99.90
18934;DHT22;9599;53.706;10.384;2022-07-17T08:32:56;19.80;99.90
18934;DHT22;9599;53.706;10.384;2022-07-17T08:35:24;20.20;99.90
18934;DHT22;9599;53.706;10.384;2022-07-17T08:37:52;20.30;99.90
18934;DHT22;9599;53.706;10.384;2022-07-17T08:40:22;20.30;99.90
18934;DHT22;9599;53.706;10.384;2022-07-17T08:42:52;20.40;99.90
18934;DHT22;9599;53.706;10.384;2022-07-17T08:45:21;20.70;99.90
18934;DHT22;9599;53.706;10.384;2022-07-17T08:47:50;20.70;99.90
18934;DHT22;9599;53.706;10.384;2022-07-17T08:50:22;20.30;99.90
18934;DHT22;9599;53.706;10.384;2022-07-17T08:52:51;20.20;99.90
18934;DHT22;9599;53.706;10.384;2022-07-17T08:55:19;20.30;99.90
18934;DHT22;9599;53.706;10.384;2022-07-17T08:57:47;20.60;99.90
18934;DHT22;9599;53.706;10.384;2022-07-17T09:00:17;20.50;99.90
18934;DHT22;9599;53.706;10.384;2022-07-17T09:02:53;20.70;99.90
18934;DHT22;9599;53.706;10.384;2022-07-17T09:05:25;21.10;99.90
18934;DHT22;9599;53.706;10.384;2022-07-17T09:07:54;21.50;99.90
18934;DHT22;9599;53.706;10.384;2022-07-17T09:10:37;21.60;99.90
18934;DHT22;9599;53.706;10.384;2022-07-17T09:13:21;21.60;99.90
18934;DHT22;9599;53.706;10.384;2022-07-17T09:15:51;21.30;99.80
18934;DHT22;9599;53.706;10.384;2022-07-17T09:18:20;21.50;99.90
18934;DHT22;9599;53.706;10.384;2022-07-17T09:20:50;21.50;99.90
18934;DHT22;9599;53.706;10.384;2022-07-17T09:23:21;21.80;99.90
18934;DHT22;9599;53.706;10.384;2022-07-17T09:25:52;21.80;99.90
18934;DHT22;9599;53.706;10.384;2022-07-17T09:28:21;22.10;99.90
18934;DHT22;9599;53.706;10.384;2022-07-17T09:30:53;22.40;99.90
18934;DHT22;9599;53.706;10.384;2022-07-17T09:33:23;22.80;99.90
18934;DHT22;9599;53.706;10.384;2022-07-17T09:35:54;23.00;99.30
18934;DHT22;9599;53.706;10.384;2022-07-17T09:38:27;22.80;97.20
18934;DHT22;9599;53.706;10.384;2022-07-17T09:41:07;22.40;98.50
18934;DHT22;9599;53.706;10.384;2022-07-17T09:43:44;22.50;98.40
18934;DHT22;9599;53.706;10.384;2022-07-17T09:46:15;22.40;98.50
18934;DHT22;9599;53.706;10.384;2022-07-17T09:48:46;22.50;99.30
18934;DHT22;9599;53.706;10.384;2022-07-17T09:51:21;21.90;97.80
18934;DHT22;9599;53.706;10.384;2022-07-17T09:53:52;21.70;99.20
18934;DHT22;9599;53.706;10.384;2022-07-17T09:56:22;22.10;99.90
18934;DHT22;9599;53.706;10.384;2022-07-17T09:58:51;22.70;99.10
18934;DHT22;9599;53.706;10.384;2022-07-17T10:01:20;23.00;99.00
18934;DHT22;9599;53.706;10.384;2022-07-17T10:03:50;22.80;97.70
18934;DHT22;9599;53.706;10.384;2022-07-17T10:06:22;22.40;97.90
18934;DHT22;9599;53.706;10.384;2022-07-17T10:08:51;22.60;99.40
18934;DHT22;9599;53.706;10.384;2022-07-17T10:11:21;22.70;97.20
18934;DHT22;9599;53.706;10.384;2022-07-17T10:13:52;22.80;97.40
18934;DHT22;9599;53.706;10.384;2022-07-17T10:16:25;23.00;96.80
18934;DHT22;9599;53.706;10.384;2022-07-17T10:18:55;23.20;97.00
18934;DHT22;9599;53.706;10.384;2022-07-17T10:21:28;23.20;96.90
18934;DHT22;9599;53.706;10.384;2022-07-17T10:24:07;23.20;96.00
18934;DHT22;9599;53.706;10.384;2022-07-17T10:26:39;23.10;94.30
18934;DHT22;9599;53.706;10.384;2022-07-17T10:29:08;23.10;94.80
18934;DHT22;9599;53.706;10.384;2022-07-17T10:31:36;23.20;96.20
18934;DHT22;9599;53.706;10.384;2022-07-17T10:34:05;23.60;96.00
18934;DHT22;9599;53.706;10.384;2022-07-17T10:36:36;23.40;95.30
18934;DHT22;9599;53.706;10.384;2022-07-17T10:39:12;23.40;95.00
18934;DHT22;9599;53.706;10.384;2022-07-17T10:41:41;23.80;95.10
18934;DHT22;9599;53.706;10.384;2022-07-17T10:44:09;23.90;94.70
18934;DHT22;9599;53.706;10.384;2022-07-17T10:46:37;23.40;93.50
18934;DHT22;9599;53.706;10.384;2022-07-17T10:49:05;23.20;94.70
18934;DHT22;9599;53.706;10.384;2022-07-17T10:51:36;23.60;95.20
18934;DHT22;9599;53.706;10.384;2022-07-17T10:54:04;24.00;93.50
18934;DHT22;9599;53.706;10.384;2022-07-17T10:56:32;23.90;93.60
18934;DHT22;9599;53.706;10.384;2022-07-17T10:59:01;23.90;94.20
18934;DHT22;9599;53.706;10.384;2022-07-17T11:01:30;24.10;93.80
18934;DHT22;9599;53.706;10.384;2022-07-17T11:04:00;24.30;95.00
18934;DHT22;9599;53.706;10.384;2022-07-17T11:06:31;24.20;93.20
18934;DHT22;9599;53.706;10.384;2022-07-17T11:09:03;24.30;92.60
18934;DHT22;9599;53.706;10.384;2022-07-17T11:11:36;24.00;90.80
18934;DHT22;9599;53.706;10.384;2022-07-17T11:14:12;23.80;91.60
18934;DHT22;9599;53.706;10.384;2022-07-17T11:16:45;23.80;92.80
18934;DHT22;9599;53.706;10.384;2022-07-17T11:19:20;23.90;91.50
18934;DHT22;9599;53.706;10.384;2022-07-17T11:21:50;24.10;91.80
18934;DHT22;9599;53.706;10.384;2022-07-17T11:24:19;24.30;91.60
18934;DHT22;9599;53.706;10.384;2022-07-17T11:26:49;24.40;92.20
18934;DHT22;9599;53.706;10.384;2022-07-17T11:29:18;24.60;90.50
18934;DHT22;9599;53.706;10.384;2022-07-17T11:31:46;24.30;88.40
18934;DHT22;9599;53.706;10.384;2022-07-17T11:34:14;24.00;89.60
18934;DHT22;9599;53.706;10.384;2022-07-17T11:36:43;24.00;90.70
18934;DHT22;9599;53.706;10.384;2022-07-17T11:39:13;24.10;91.60
18934;DHT22;9599;53.706;10.384;2022-07-17T11:41:44;24.10;91.10
18934;DHT22;9599;53.706;10.384;2022-07-17T11:44:16;24.40;91.90
18934;DHT22;9599;53.706;10.384;2022-07-17T11:46:47;24.50;91.00
18934;DHT22;9599;53.706;10.384;2022-07-17T11:49:24;24.80;89.80
18934;DHT22;9599;53.706;10.384;2022-07-17T11:51:55;24.80;88.20
18934;DHT22;9599;53.706;10.384;2022-07-17T11:54:24;24.60;91.30
18934;DHT22;9599;53.706;10.384;2022-07-17T11:56:56;24.70;89.60
18934;DHT22;9599;53.706;10.384;2022-07-17T11:59:26;24.60;88.50
18934;DHT22;9599;53.706;10.384;2022-07-17T12:01:55;24.20;91.10
18934;DHT22;9599;53.706;10.384;2022-07-17T12:04:23;24.50;91.20
18934;DHT22;9599;53.706;10.384;2022-07-17T12:06:58;24.30;90.20
18934;DHT22;9599;53.706;10.384;2022-07-17T12:09:29;24.10;90.60
18934;DHT22;9599;53.706;10.384;2022-07-17T12:12:02;24.10;91.70
18934;DHT22;9599;53.706;10.384;2022-07-17T12:14:30;24.10;91.10
18934;DHT22;9599;53.706;10.384;2022-07-17T12:17:03;24.20;91.50
18934;DHT22;9599;53.706;10.384;2022-07-17T12:19:32;24.30;91.10
18934;DHT22;9599;53.706;10.384;2022-07-17T12:22:02;24.20;91.30
18934;DHT22;9599;53.706;10.384;2022-07-17T12:24:31;24.60;91.00
18934;DHT22;9599;53.706;10.384;2022-07-17T12:27:03;24.50;89.30
18934;DHT22;9599;53.706;10.384;2022-07-17T12:29:32;24.30;90.90
18934;DHT22;9599;53.706;10.384;2022-07-17T12:32:01;24.20;88.10
18934;DHT22;9599;53.706;10.384;2022-07-17T12:34:30;24.20;90.40
18934;DHT22;9599;53.706;10.384;2022-07-17T12:36:58;24.40;90.60
18934;DHT22;9599;53.706;10.384;2022-07-17T12:39:26;24.70;90.60
18934;DHT22;9599;53.706;10.384;2022-07-17T12:41:54;24.90;89.00
18934;DHT22;9599;53.706;10.384;2022-07-17T12:44:23;24.50;89.30
18934;DHT22;9599;53.706;10.384;2022-07-17T12:46:52;24.40;90.30
18934;DHT22;9599;53.706;10.384;2022-07-17T12:49:20;24.50;90.40
18934;DHT22;9599;53.706;10.384;2022-07-17T12:51:48;24.20;88.60
18934;DHT22;9599;53.706;10.384;2022-07-17T12:54:16;24.00;89.30
18934;DHT22;9599;53.706;10.384;2022-07-17T12:56:44;24.00;90.20
18934;DHT22;9599;53.706;10.384;2022-07-17T12:59:12;24.20;90.70
18934;DHT22;9599;53.706;10.384;2022-07-17T13:01:41;24.20;90.60
18934;DHT22;9599;53.706;10.384;2022-07-17T13:04:10;24.20;90.10
18934;DHT22;9599;53.706;10.384;2022-07-17T13:06:38;24.00;90.90
18934;DHT22;9599;53.706;10.384;2022-07-17T13:09:06;24.10;90.70
18934;DHT22;9599;53.706;10.384;2022-07-17T13:11:34;24.40;91.70
18934;DHT22;9599;53.706;10.384;2022-07-17T13:14:02;24.10;91.00
18934;DHT22;9599;53.706;10.384;2022-07-17T13:16:30;24.20;91.30
18934;DHT22;9599;53.706;10.384;2022-07-17T13:19:00;24.30;90.50
18934;DHT22;9599;53.706;10.384;2022-07-17T13:21:28;24.40;90.60
18934;DHT22;9599;53.706;10.384;2022-07-17T13:23:56;24.60;90.50
18934;DHT22;9599;53.706;10.384;2022-07-17T13:26:24;24.50;89.70
18934;DHT22;9599;53.706;10.384;2022-07-17T13:28:52;24.30;90.80
18934;DHT22;9599;53.706;10.384;2022-07-17T13:31:21;24.20;90.70
18934;DHT22;9599;53.706;10.384;2022-07-17T13:33:49;24.30;91.40
18934;DHT22;9599;53.706;10.384;2022-07-17T13:36:18;24.20;90.90
18934;DHT22;9599;53.706;10.384;2022-07-17T13:38:46;24.20;90.20
18934;DHT22;9599;53.706;10.384;2022-07-17T13:41:14;23.90;90.50
18934;DHT22;9599;53.706;10.384;2022-07-17T13:43:42;23.90;90.60
18934;DHT22;9599;53.706;10.384;2022-07-17T13:46:10;24.10;90.50
18934;DHT22;9599;53.706;10.384;2022-07-17T13:48:38;24.10;90.90
18934;DHT22;9599;53.706;10.384;2022-07-17T13:51:06;24.00;90.50
18934;DHT22;9599;53.706;10.384;2022-07-17T13:53:35;24.00;90.00
18934;DHT22;9599;53.706;10.384;2022-07-17T13:56:05;24.00;90.70
18934;DHT22;9599;53.706;10.384;2022-07-17T13:58:33;23.90;90.90
18934;DHT22;9599;53.706;10.384;2022-07-17T14:01:01;23.90;90.70
18934;DHT22;9599;53.706;10.384;2022-07-17T14:03:29;23.80;90.40
18934;DHT22;9599;53.706;10.384;2022-07-17T14:05:58;23.90;91.10
18934;DHT22;9599;53.706;10.384;2022-07-17T14:08:26;23.90;90.60
18934;DHT22;9599;53.706;10.384;2022-07-17T14:10:55;24.00;91.30
18934;DHT22;9599;53.706;10.384;2022-07-17T14:13:23;24.20;91.00
18934;DHT22;9599;53.706;10.384;2022-07-17T14:15:51;24.00;90.50
18934;DHT22;9599;53.706;10.384;2022-07-17T14:18:19;23.80;90.40
18934;DHT22;9599;53.706;10.384;2022-07-17T14:20:47;23.60;91.00
18934;DHT22;9599;53.706;10.384;2022-07-17T14:23:16;23.70;91.60
18934;DHT22;9599;53.706;10.384;2022-07-17T14:25:44;23.80;92.20
18934;DHT22;9599;53.706;10.384;2022-07-17T14:28:13;23.80;91.80
18934;DHT22;9599;53.706;10.384;2022-07-17T14:30:41;23.90;92.70
18934;DHT22;9599;53.706;10.384;2022-07-17T14:33:10;24.10;92.50
18934;DHT22;9599;53.706;10.384;2022-07-17T14:35:38;24.20;92.60
18934;DHT22;9599;53.706;10.384;2022-07-17T14:38:06;24.50;92.40
18934;DHT22;9599;53.706;10.384;2022-07-17T14:40:34;24.50;91.90
18934;DHT22;9599;53.706;10.384;2022-07-17T14:43:02;24.40;91.40
18934;DHT22;9599;53.706;10.384;2022-07-17T14:45:31;24.40;91.90
18934;DHT22;9599;53.706;10.384;2022-07-17T14:47:59;24.40;91.90
18934;DHT22;9599;53.706;10.384;2022-07-17T14:50:27;24.30;91.70
18934;DHT22;9599;53.706;10.384;2022-07-17T14:52:55;24.40;92.40
18934;DHT22;9599;53.706;10.384;2022-07-17T14:55:24;24.30;92.10
18934;DHT22;9599;53.706;10.384;2022-07-17T14:57:52;24.30;92.40
18934;DHT22;9599;53.706;10.384;2022-07-17T15:00:20;24.20;92.10
18934;DHT22;9599;53.706;10.384;2022-07-17T15:02:49;24.20;92.50
18934;DHT22;9599;53.706;10.384;2022-07-17T15:05:18;24.20;93.00
18934;DHT22;9599;53.706;10.384;2022-07-17T15:07:46;24.20;92.10
18934;DHT22;9599;53.706;10.384;2022-07-17T15:10:14;24.20;92.50
18934;DHT22;9599;53.706;10.384;2022-07-17T15:12:42;24.20;92.80
18934;DHT22;9599;53.706;10.384;2022-07-17T15:15:10;24.20;92.60
18934;DHT22;9599;53.706;10.384;2022-07-17T15:17:39;24.20;92.80
18934;DHT22;9599;53.706;10.384;2022-07-17T15:20:09;24.30;93.10
18934;DHT22;9599;53.706;10.384;2022-07-17T15:22:38;24.40;92.90
18934;DHT22;9599;53.706;10.384;2022-07-17T15:25:07;24.30;93.10
18934;DHT22;9599;53.706;10.384;2022-07-17T15:27:35;24.40;92.40
18934;DHT22;9599;53.706;10.384;2022-07-17T15:30:04;24.30;92.50
18934;DHT22;9599;53.706;10.384;2022-07-17T15:32:32;24.20;93.30
18934;DHT22;9599;53.706;10.384;2022-07-17T15:35:01;24.20;92.60
18934;DHT22;9599;53.706;10.384;2022-07-17T15:37:31;24.20;92.90
18934;DHT22;9599;53.706;10.384;2022-07-17T15:40:00;24.40;93.10
18934;DHT22;9599;53.706;10.384;2022-07-17T15:42:28;24.30;92.30